Time;durP1;ratioP1;P1;durP2;ratioP2;P2;SDS_P1;SDS_P2;PMS_P1;PMS_P2;Temp;Humidity;BMP_temperature;BMP_pressure;BME280_temperature;BME280_humidity;BME280_pressure;Samples;Min_cycle;Max_cycle;Signal;HPM_P1;HPM_P2
2022/01/04 00:00:55;;;;;;;5.35;2.35;;;;;;;26.66;34.03;95671.94;5041346;28;20032;-59
2022/01/04 00:03:20;;;;;;;6.15;1.92;;;;;;;26.67;34.00;95672.78;5017644;28;20028;-58
2022/01/04 00:05:46;;;;;;;4.15;1.48;;;;;;;26.65;34.04;95664.19;5018850;28;20644;-59
2022/01/04 00:08:13;;;;;;;6.75;1.73;;;;;;;26.64;34.08;95657.25;5025080;28;20032;-58
2022/01/04 00:10:38;;;;;;;6.97;2.05;;;;;;;26.64;33.97;95659.88;5022838;28;20533;-58
2022/01/04 00:13:23;;;;;;;6.05;2.22;;;;;;;26.63;33.97;95655.59;5024714;28;20026;-57
2022/01/04 00:15:55;;;;;;;7.75;2.15;;;;;;;26.61;34.03;95648.66;5026607;28;20072;-61
2022/01/04 00:18:20;;;;;;;5.05;2.00;;;;;;;26.59;34.02;95645.28;5006216;28;20565;-58
2022/01/04 00:20:47;;;;;;;9.00;2.60;;;;;;;26.58;34.12;95630.50;5027500;28;20029;-59
2022/01/04 00:23:12;;;;;;;3.72;1.90;;;;;;;26.57;34.13;95620.94;5029862;28;20051;-60
2022/01/04 00:25:38;;;;;;;7.95;1.90;;;;;;;26.58;33.99;95614.72;5025114;28;20829;-60
2022/01/04 00:28:07;;;;;;;5.85;2.00;;;;;;;26.57;34.12;95620.94;5021307;28;20040;-59
2022/01/04 00:30:35;;;;;;;5.93;1.67;;;;;;;26.56;34.13;95607.91;5023498;28;20033;-57
2022/01/04 00:33:01;;;;;;;5.97;1.60;;;;;;;26.55;34.13;95607.06;5022945;28;20082;-59
2022/01/04 00:35:26;;;;;;;4.32;1.90;;;;;;;26.54;34.15;95610.66;5021618;28;20897;-59
2022/01/04 00:37:52;;;;;;;6.43;1.80;;;;;;;26.55;34.05;95601.00;5041690;28;20028;-59
2022/01/04 00:40:17;;;;;;;4.28;1.70;;;;;;;26.54;34.05;95600.13;5023099;28;20040;-60
2022/01/04 00:42:42;;;;;;;2.65;1.55;;;;;;;26.54;34.02;95589.63;5022439;28;20036;-59
2022/01/04 00:45:08;;;;;;;4.57;1.60;;;;;;;26.52;34.02;95588.91;5022297;28;20025;-59
2022/01/04 00:50:17;;;;;;;3.88;1.60;;;;;;;26.53;33.98;95566.94;5026564;28;20090;-59
2022/01/04 00:52:43;;;;;;;5.18;1.48;;;;;;;26.51;34.22;95562.75;5026826;28;20033;-59
2022/01/04 00:55:08;;;;;;;4.03;1.35;;;;;;;26.50;34.16;95567.16;5020309;28;20741;-60
2022/01/04 00:57:33;;;;;;;5.82;1.67;;;;;;;26.50;34.24;95561.91;5022998;28;20407;-58
2022/01/04 00:59:59;;;;;;;3.38;1.52;;;;;;;26.48;34.21;95559.41;5022357;28;20656;-58
2022/01/04 01:02:24;;;;;;;2.72;1.48;;;;;;;26.49;34.20;95557.63;5022533;28;20491;-59
2022/01/04 01:04:50;;;;;;;3.65;1.52;;;;;;;26.47;34.31;95536.72;5022190;28;20075;-59
2022/01/04 01:07:15;;;;;;;4.70;1.45;;;;;;;26.48;34.17;95537.56;5018719;28;20033;-59
2022/01/04 01:09:54;;;;;;;5.15;1.45;;;;;;;26.48;34.40;95532.31;5022540;28;20037;-59
2022/01/04 01:12:19;;;;;;;3.55;1.40;;;;;;;26.41;34.13;95499.56;5020032;28;20700;-58
2022/01/04 01:14:45;;;;;;;5.32;1.70;;;;;;;26.47;34.18;95504.38;5024493;28;20025;-60
2022/01/04 01:17:10;;;;;;;3.72;1.50;;;;;;;26.47;34.27;95504.38;5017676;28;20039;-59
2022/01/04 01:19:37;;;;;;;2.53;1.30;;;;;;;26.44;34.30;95488.84;5018804;28;20039;-59
2022/01/04 01:22:03;;;;;;;2.33;1.42;;;;;;;26.45;34.34;95493.97;5020767;28;20036;-60
2022/01/04 01:24:29;;;;;;;2.97;1.38;;;;;;;26.46;34.30;95486.91;5021486;28;20021;-59
2022/01/04 01:26:54;;;;;;;4.72;1.45;;;;;;;26.45;34.18;95485.25;5017138;28;20021;-58
2022/01/04 01:29:20;;;;;;;5.45;1.40;;;;;;;26.44;34.25;95494.09;5012650;28;20029;-59
2022/01/04 01:31:45;;;;;;;2.42;1.33;;;;;;;26.43;34.10;95482.75;5017391;28;20033;-58
2022/01/04 01:34:10;;;;;;;3.97;1.45;;;;;;;26.43;34.19;95463.53;5018378;28;20033;-59
2022/01/04 01:36:36;;;;;;;2.95;1.20;;;;;;;26.39;34.23;95459.47;5022547;28;20488;-60
2022/01/04 01:39:01;;;;;;;3.13;1.30;;;;;;;26.42;34.32;95459.22;5023392;28;20033;-60
2022/01/04 01:41:27;;;;;;;5.10;1.40;;;;;;;26.41;34.32;95458.41;5019175;28;20040;-59
2022/01/04 01:43:53;;;;;;;4.63;1.45;;;;;;;26.41;34.24;95447.03;5017506;28;20032;-59
2022/01/04 01:46:18;;;;;;;5.35;1.25;;;;;;;26.40;34.30;95433.09;5028968;28;20347;-59
2022/01/04 01:48:44;;;;;;;4.03;1.15;;;;;;;26.40;34.28;95416.47;5016593;28;20541;-58
2022/01/04 01:51:09;;;;;;;2.78;1.10;;;;;;;26.39;34.24;95414.81;5019784;28;20094;-58
2022/01/04 01:53:34;;;;;;;4.35;1.30;;;;;;;26.39;34.31;95402.50;5022197;28;20029;-59
2022/01/04 01:56:00;;;;;;;5.93;1.30;;;;;;;26.40;34.24;95398.09;5022763;28;20044;-59
2022/01/04 01:58:25;;;;;;;3.15;1.05;;;;;;;26.40;34.27;95392.84;5020659;28;20044;-59
2022/01/04 02:00:50;;;;;;;3.22;1.17;;;;;;;26.39;34.29;95399.88;5019439;28;20024;-59
2022/01/04 02:03:16;;;;;;;1.55;0.90;;;;;;;26.39;34.27;95397.25;5023209;28;20566;-59
2022/01/04 02:05:41;;;;;;;1.52;1.00;;;;;;;26.38;34.15;95389.50;5021014;28;20032;-58
2022/01/04 02:08:07;;;;;;;3.03;1.20;;;;;;;26.38;34.24;95379.00;5019210;28;20033;-58
2022/01/04 02:10:32;;;;;;;2.67;1.15;;;;;;;26.37;34.32;95367.66;5008700;28;20044;-60
2022/01/04 02:12:58;;;;;;;2.13;0.93;;;;;;;26.38;34.29;95365.88;5022327;28;20052;-58
2022/01/04 02:15:24;;;;;;;3.03;1.00;;;;;;;26.38;34.21;95363.25;5021540;28;20033;-58
2022/01/04 02:17:50;;;;;;;3.10;1.17;;;;;;;26.36;34.30;95360.75;5023394;28;20124;-58
2022/01/04 02:20:16;;;;;;;3.70;1.27;;;;;;;26.37;34.26;95362.41;5018879;28;20036;-59
2022/01/04 02:22:41;;;;;;;2.92;1.00;;;;;;;26.37;34.37;95356.31;5022239;28;20030;-58
2022/01/04 02:25:07;;;;;;;1.83;0.93;;;;;;;26.35;34.30;95349.38;5022193;28;20630;-59
2022/01/04 02:27:33;;;;;;;3.22;1.13;;;;;;;26.35;34.33;95333.63;5022400;28;20037;-60
2022/01/04 02:29:59;;;;;;;2.65;0.90;;;;;;;26.34;34.21;95331.97;5037059;28;20037;-57
2022/01/04 02:32:24;;;;;;;2.60;1.30;;;;;;;26.35;34.33;95327.53;5023669;28;20568;-58
2022/01/04 02:34:50;;;;;;;2.20;1.10;;;;;;;26.34;34.23;95318.84;5022808;28;21198;-60
2022/01/04 02:37:23;;;;;;;1.45;0.80;;;;;;;26.34;34.37;95310.97;5040812;28;20025;-60
2022/01/04 02:39:48;;;;;;;1.98;1.13;;;;;;;26.33;34.27;95293.53;5022907;28;20558;-59
2022/01/04 02:42:14;;;;;;;2.33;1.05;;;;;;;26.16;34.38;95254.63;5026110;28;20107;-60
2022/01/04 02:44:39;;;;;;;3.63;1.08;;;;;;;26.33;34.02;95279.56;5024192;28;20052;-58
2022/01/04 02:47:05;;;;;;;2.05;1.13;;;;;;;26.33;34.40;95285.66;5021171;28;20045;-60
2022/01/04 02:49:30;;;;;;;1.15;0.65;;;;;;;26.32;34.39;95286.59;5018049;28;20032;-59
2022/01/04 02:51:56;;;;;;;2.22;0.80;;;;;;;26.32;34.36;95281.34;5017959;28;20150;-58
2022/01/04 02:54:21;;;;;;;2.22;0.80;;;;;;;26.32;34.33;95272.66;5021848;28;20447;-58
2022/01/04 02:56:47;;;;;;;2.67;0.90;;;;;;;26.31;34.37;95253.41;5021474;28;20025;-59
2022/01/04 02:59:13;;;;;;;2.45;0.85;;;;;;;26.31;34.30;95255.22;5019084;28;20773;-60
2022/01/04 03:01:38;;;;;;;2.47;0.90;;;;;;;26.32;34.28;95251.63;5017000;28;20040;-59
2022/01/04 03:04:04;;;;;;;3.17;1.00;;;;;;;26.32;34.50;95247.19;5019281;28;20032;-59
2022/01/04 03:06:29;;;;;;;2.60;0.90;;;;;;;26.31;34.34;95248.16;5001779;28;20032;-61
2022/01/04 03:08:54;;;;;;;4.70;1.20;;;;;;;26.32;34.45;95259.50;5023052;28;20042;-60
2022/01/04 03:11:20;;;;;;;5.15;1.17;;;;;;;26.30;34.41;95250.91;5018847;28;20799;-60
2022/01/04 03:13:45;;;;;;;3.22;1.10;;;;;;;26.29;34.39;95244.84;5018769;28;20033;-60
2022/01/04 03:16:11;;;;;;;2.60;0.70;;;;;;;26.30;34.27;95241.25;5014561;28;20060;-59
2022/01/04 03:18:46;;;;;;;3.63;1.00;;;;;;;26.30;34.36;95240.41;5012688;28;20033;-60
2022/01/04 03:21:11;;;;;;;2.05;1.02;;;;;;;26.28;34.38;95237.91;5016269;28;20060;-62
2022/01/04 03:23:37;;;;;;;3.60;0.95;;;;;;;26.29;34.44;95233.50;5019056;28;20021;-60
2022/01/04 03:26:02;;;;;;;3.38;1.10;;;;;;;26.23;34.35;95219.03;5017006;28;20759;-60
2022/01/04 03:28:28;;;;;;;6.40;1.02;;;;;;;26.29;34.14;95208.06;5018061;28;20037;-59
2022/01/04 03:30:53;;;;;;;2.22;1.05;;;;;;;26.28;34.29;95219.50;5019968;28;20036;-59
2022/01/04 03:33:18;;;;;;;2.10;0.70;;;;;;;26.28;34.33;95209.00;5018669;28;21082;-60
2022/01/04 03:35:44;;;;;;;5.30;0.95;;;;;;;26.27;34.18;95202.09;5023844;28;20041;-60
2022/01/04 03:38:09;;;;;;;2.17;0.95;;;;;;;26.27;34.30;95194.22;5021590;28;20036;-60
2022/01/04 03:40:35;;;;;;;4.40;1.02;;;;;;;26.26;34.40;95182.06;5018725;28;20051;-60
2022/01/04 03:43:00;;;;;;;1.90;0.70;;;;;;;26.27;34.37;95185.53;5018420;28;20119;-60
2022/01/04 03:45:26;;;;;;;3.30;0.80;;;;;;;26.26;34.37;95187.31;5022537;28;20032;-60
2022/01/04 03:47:51;;;;;;;1.75;0.70;;;;;;;26.26;34.39;95176.81;5017538;28;20041;-60
2022/01/04 03:50:16;;;;;;;1.23;0.70;;;;;;;26.26;34.44;95171.56;5019741;28;20037;-60
2022/01/04 03:52:42;;;;;;;1.98;0.90;;;;;;;26.25;34.34;95175.13;5015828;28;20033;-60
2022/01/04 03:55:07;;;;;;;2.40;1.02;;;;;;;26.25;34.38;95164.59;5018997;28;20032;-59
2022/01/04 03:57:34;;;;;;;5.45;0.80;;;;;;;26.26;34.38;95154.94;5020110;28;20938;-61
2022/01/04 03:59:59;;;;;;;3.72;1.10;;;;;;;26.25;34.51;95156.72;5015805;28;20033;-60
2022/01/04 04:02:24;;;;;;;2.33;0.90;;;;;;;26.26;34.50;95150.53;5016384;28;20033;-59
2022/01/04 04:04:50;;;;;;;3.83;0.80;;;;;;;26.25;34.45;95145.38;5020841;28;20728;-60
2022/01/04 04:07:15;;;;;;;1.92;0.73;;;;;;;26.25;34.29;95140.13;5019584;28;20895;-60
2022/01/04 04:09:41;;;;;;;1.52;0.90;;;;;;;26.24;34.35;95136.69;5017091;28;20037;-59
2022/01/04 04:12:07;;;;;;;4.78;1.05;;;;;;;26.24;34.40;95131.44;5019776;28;20033;-58
2022/01/04 04:14:32;;;;;;;3.53;0.88;;;;;;;26.23;34.55;95122.72;5019286;28;20495;-60
2022/01/04 04:16:58;;;;;;;1.42;0.70;;;;;;;26.24;34.45;95115.69;5022710;28;20044;-59
2022/01/04 04:19:23;;;;;;;4.18;1.27;;;;;;;26.24;34.53;95107.81;5017239;28;20728;-58
2022/01/04 04:21:48;;;;;;;1.95;0.93;;;;;;;26.23;34.53;95103.50;5016164;28;20036;-58
2022/01/04 04:24:14;;;;;;;0.75;0.60;;;;;;;26.23;34.52;95104.34;5021184;28;20026;-58
2022/01/04 04:26:39;;;;;;;2.30;0.80;;;;;;;26.22;34.43;95107.94;5021078;28;20877;-58
2022/01/04 04:29:05;;;;;;;2.50;0.90;;;;;;;26.22;34.54;95104.47;5018960;28;20037;-58
2022/01/04 04:31:30;;;;;;;1.17;0.70;;;;;;;26.23;34.46;95103.50;5017589;28;20049;-58
2022/01/04 04:33:55;;;;;;;5.63;0.95;;;;;;;26.22;34.47;95091.34;5023986;28;20037;-58
2022/01/04 04:36:21;;;;;;;7.00;0.80;;;;;;;26.23;34.48;95090.38;5023700;28;20037;-59
2022/01/04 04:38:46;;;;;;;2.70;0.68;;;;;;;26.22;34.59;95096.59;5018968;28;20024;-58
2022/01/04 04:41:11;;;;;;;1.38;0.70;;;;;;;26.18;34.59;95085.50;5015771;28;20712;-59
2022/01/04 04:43:37;;;;;;;1.85;0.65;;;;;;;26.22;34.50;95092.19;5019886;28;20033;-58
2022/01/04 04:46:02;;;;;;;3.17;0.88;;;;;;;26.22;34.60;95084.31;5024219;28;20028;-60
2022/01/04 04:48:28;;;;;;;1.85;0.60;;;;;;;26.22;34.46;95076.41;5026378;28;20071;-59
2022/01/04 04:50:53;;;;;;;2.33;0.88;;;;;;;26.18;34.48;95058.41;5011893;28;20045;-57
2022/01/04 04:53:19;;;;;;;5.07;0.80;;;;;;;26.22;34.55;95062.44;5023223;28;20029;-60
2022/01/04 04:55:44;;;;;;;2.38;0.70;;;;;;;26.22;34.50;95068.53;5019661;28;20064;-60
2022/01/04 04:58:10;;;;;;;0.77;0.40;;;;;;;26.22;34.52;95057.19;5017464;28;20515;-58
2022/01/04 05:00:36;;;;;;;1.52;0.73;;;;;;;26.22;34.56;95059.81;5013350;28;20560;-60
2022/01/04 05:03:01;;;;;;;1.98;0.70;;;;;;;26.22;34.52;95050.16;5015030;28;20048;-65
2022/01/04 05:05:27;;;;;;;1.98;1.00;;;;;;;26.22;34.45;95057.19;5019761;28;20520;-59
2022/01/04 05:07:52;;;;;;;0.65;0.55;;;;;;;26.21;34.48;95052.91;5024941;28;20033;-59
2022/01/04 05:10:18;;;;;;;2.10;0.70;;;;;;;26.21;34.45;95048.47;5017188;28;20028;-58
2022/01/04 05:12:43;;;;;;;2.92;0.60;;;;;;;26.21;34.54;95045.84;5007716;28;20484;-59
2022/01/04 05:15:09;;;;;;;0.75;0.55;;;;;;;26.21;34.58;95043.22;5013035;28;20492;-58
2022/01/04 05:17:35;;;;;;;1.67;0.60;;;;;;;26.21;34.62;95042.41;5010820;28;20600;-59
2022/01/04 05:20:00;;;;;;;4.70;0.75;;;;;;;26.21;34.62;95037.16;5006333;28;20911;-59
2022/01/04 05:22:26;;;;;;;3.58;0.57;;;;;;;26.21;34.62;95039.78;5009059;28;20579;-60
2022/01/04 05:24:51;;;;;;;1.52;0.60;;;;;;;26.20;34.62;95030.25;5009343;28;20052;-58
2022/01/04 05:27:16;;;;;;;2.35;0.73;;;;;;;26.21;34.52;95026.66;4993049;28;20398;-59
2022/01/04 05:29:42;;;;;;;0.68;0.40;;;;;;;26.20;34.51;95019.75;5009944;28;20044;-61
2022/01/04 05:32:07;;;;;;;2.15;0.57;;;;;;;26.20;34.53;95025.81;5006042;28;20038;-58
2022/01/04 05:34:33;;;;;;;0.95;0.55;;;;;;;26.21;34.67;95000.41;5008721;28;20086;-60
2022/01/04 05:36:58;;;;;;;3.55;0.70;;;;;;;26.20;34.55;94993.50;5009689;28;20025;-59
2022/01/04 05:39:24;;;;;;;1.77;0.82;;;;;;;26.20;34.64;94993.50;5009873;28;20087;-59
2022/01/04 05:41:49;;;;;;;1.67;0.80;;;;;;;26.20;34.54;94983.00;5023206;28;20091;-59
2022/01/04 05:44:14;;;;;;;1.23;0.68;;;;;;;26.19;34.56;94976.91;5011648;28;20029;-59
2022/01/04 05:46:40;;;;;;;0.75;0.60;;;;;;;26.19;34.40;94963.78;5011375;28;20645;-60
2022/01/04 05:49:05;;;;;;;1.90;0.50;;;;;;;26.19;34.49;94955.91;5007089;28;20659;-59
2022/01/04 05:51:31;;;;;;;2.25;0.52;;;;;;;26.18;34.55;94958.66;5009322;28;20055;-60
2022/01/04 05:53:56;;;;;;;0.98;0.50;;;;;;;26.19;34.55;94957.69;5013633;28;20029;-58
2022/01/04 05:56:22;;;;;;;1.38;0.65;;;;;;;26.17;34.43;94949.94;4990794;28;20040;-61
2022/01/04 05:58:47;;;;;;;0.95;0.50;;;;;;;26.18;34.57;94953.41;5009034;28;20933;-59
2022/01/04 06:01:12;;;;;;;0.60;0.40;;;;;;;26.18;34.55;94945.53;5009174;28;20036;-60
2022/01/04 06:03:38;;;;;;;4.55;0.68;;;;;;;26.18;34.48;94948.16;5010705;28;20458;-60
2022/01/04 06:06:03;;;;;;;1.00;0.50;;;;;;;26.18;34.58;94942.88;5016656;28;20687;-59
2022/01/04 06:08:33;;;;;;;1.00;0.50;;;;;;;26.18;34.55;94935.00;5009958;28;20033;-59
2022/01/04 06:10:59;;;;;;;0.65;0.40;;;;;;;26.17;34.63;94931.56;5008844;28;22157;-58
2022/01/04 06:16:09;;;;;;;1.88;0.55;;;;;;;26.16;34.58;94923.81;5010130;28;20403;-59
2022/01/04 06:18:34;;;;;;;0.80;0.50;;;;;;;26.17;34.45;94917.59;5008843;28;20033;-59
2022/01/04 06:20:59;;;;;;;1.58;0.60;;;;;;;26.17;34.62;94907.09;5009052;28;20033;-60
2022/01/04 06:23:25;;;;;;;0.82;0.38;;;;;;;26.16;34.53;94908.06;5008606;28;20048;-60
2022/01/04 06:25:53;;;;;;;0.63;0.32;;;;;;;26.16;34.62;94898.38;5014071;28;20033;-59
2022/01/04 06:28:19;;;;;;;0.47;0.40;;;;;;;26.16;34.56;94897.56;5013574;28;20032;-59
2022/01/04 06:30:45;;;;;;;2.80;0.40;;;;;;;26.16;34.52;94893.13;5017647;28;20041;-61
2022/01/04 06:33:10;;;;;;;0.93;0.50;;;;;;;26.16;34.68;94887.06;5014247;28;20032;-60
2022/01/04 06:35:37;;;;;;;0.95;0.52;;;;;;;26.16;34.54;94879.19;5015413;28;20465;-59
2022/01/04 06:38:04;;;;;;;1.35;0.40;;;;;;;26.15;34.69;94882.75;5017661;28;20037;-59
2022/01/04 06:40:29;;;;;;;0.90;0.47;;;;;;;26.15;34.61;94891.47;5013744;28;20029;-59
2022/01/04 06:42:55;;;;;;;1.40;0.50;;;;;;;26.15;34.54;94885.38;5017483;28;20113;-59
2022/01/04 06:45:20;;;;;;;0.80;0.40;;;;;;;26.15;34.51;94874.88;5013656;28;20025;-59
2022/01/04 06:47:45;;;;;;;0.88;0.45;;;;;;;26.16;34.60;94881.81;5016090;28;20032;-60
2022/01/04 06:50:14;;;;;;;0.57;0.30;;;;;;;26.15;34.57;94875.72;5016784;28;20033;-60
2022/01/04 06:52:39;;;;;;;1.20;0.50;;;;;;;26.15;34.67;94877.50;5012239;28;20028;-58
2022/01/04 06:55:05;;;;;;;2.97;0.93;;;;;;;26.15;34.67;94880.13;5016405;28;20048;-60
2022/01/04 06:57:30;;;;;;;1.77;0.43;;;;;;;26.15;34.69;94880.13;5019326;28;20024;-58
2022/01/04 06:59:56;;;;;;;1.83;0.50;;;;;;;26.15;34.72;94874.88;5015861;28;20412;-60
2022/01/04 07:02:21;;;;;;;0.45;0.32;;;;;;;26.15;34.59;94869.63;5021106;28;20044;-59
2022/01/04 07:04:47;;;;;;;1.27;0.60;;;;;;;26.13;34.58;94856.66;5016858;28;20029;-60
2022/01/04 07:07:12;;;;;;;3.55;0.32;;;;;;;26.14;34.59;94854.84;5022249;28;20028;-59
2022/01/04 07:09:37;;;;;;;0.40;0.40;;;;;;;26.14;34.61;94852.22;5019062;28;20548;-60
2022/01/04 07:12:03;;;;;;;0.73;0.45;;;;;;;26.15;34.72;94856.50;5019337;28;20500;-60
2022/01/04 07:14:28;;;;;;;3.00;0.40;;;;;;;26.14;34.69;94846.97;5021386;28;20029;-60
2022/01/04 07:16:54;;;;;;;2.35;0.50;;;;;;;26.14;34.73;94846.97;5012948;28;20067;-60
2022/01/04 07:19:20;;;;;;;3.13;0.35;;;;;;;26.13;34.68;94840.91;5011436;28;20033;-60
2022/01/04 07:21:45;;;;;;;5.00;0.68;;;;;;;26.14;34.62;94833.84;5011515;28;20419;-59
2022/01/04 07:24:10;;;;;;;10.63;0.85;;;;;;;26.14;34.70;94831.22;5018352;28;20033;-59
2022/01/04 07:26:36;;;;;;;13.68;0.90;;;;;;;26.15;34.63;94846.00;5018762;28;20029;-60
2022/01/04 07:29:01;;;;;;;9.98;0.88;;;;;;;26.14;34.73;94836.47;5018105;28;20036;-60
2022/01/04 07:31:27;;;;;;;23.75;1.55;;;;;;;26.15;34.79;94836.34;5006802;28;20033;-60
2022/01/04 07:33:52;;;;;;;14.27;1.30;;;;;;;26.14;34.78;94836.47;5007321;28;20043;-59
2022/01/04 07:36:18;;;;;;;8.65;1.30;;;;;;;26.14;34.88;94829.44;5011866;28;20112;-60
2022/01/04 07:38:43;;;;;;;10.75;1.30;;;;;;;26.13;34.95;94832.19;5009493;28;20813;-60
2022/01/04 07:41:09;;;;;;;9.57;1.70;;;;;;;26.14;34.79;94831.22;5010040;28;20723;-59
2022/01/04 07:43:34;;;;;;;8.27;1.40;;;;;;;26.13;34.88;94824.31;5009974;28;20691;-59
2022/01/04 07:46:00;;;;;;;6.57;1.40;;;;;;;26.13;34.71;94821.69;5014190;28;20082;-59
2022/01/04 07:48:25;;;;;;;10.85;1.77;;;;;;;26.14;34.91;94825.97;5009991;28;20032;-58
2022/01/04 07:50:55;;;;;;;7.50;2.05;;;;;;;26.12;34.88;94822.66;5009320;28;21809;-58
2022/01/04 07:53:20;;;;;;;4.72;1.65;;;;;;;26.14;34.94;94815.47;5009282;28;20028;-59
2022/01/04 07:55:46;;;;;;;6.85;1.63;;;;;;;26.12;34.89;94823.47;4999081;28;20025;-61
2022/01/04 07:58:11;;;;;;;9.00;1.90;;;;;;;26.11;34.74;94795.56;5006787;28;20044;-60
2022/01/04 08:00:36;;;;;;;9.90;2.25;;;;;;;26.12;34.82;94807.72;5010910;28;20037;-60
2022/01/04 08:03:03;;;;;;;7.68;2.20;;;;;;;26.13;34.74;94795.44;5011419;28;20025;-58
2022/01/04 08:05:28;;;;;;;7.45;1.70;;;;;;;26.12;34.93;94791.97;5017397;28;20151;-61
2022/01/04 08:07:54;;;;;;;7.68;2.10;;;;;;;26.12;34.83;94806.91;5014521;28;20040;-61
2022/01/04 08:10:19;;;;;;;6.18;2.10;;;;;;;26.11;34.76;94806.06;5013724;28;20090;-59
2022/01/04 08:12:45;;;;;;;8.45;2.10;;;;;;;26.12;34.77;94799.03;5015525;28;20708;-59
2022/01/04 08:15:11;;;;;;;11.98;2.10;;;;;;;26.10;34.77;94786.84;5018114;28;20592;-59
2022/01/04 08:17:37;;;;;;;5.32;1.48;;;;;;;26.12;34.75;94793.78;5014643;28;20033;-59
2022/01/04 08:20:04;;;;;;;4.43;1.80;;;;;;;26.10;34.81;94778.97;5012983;28;20036;-60
2022/01/04 08:22:32;;;;;;;10.90;1.60;;;;;;;26.10;34.85;94788.66;5008418;28;20052;-62
2022/01/04 08:25:02;;;;;;;6.53;1.73;;;;;;;26.09;35.03;94798.34;5007975;28;20028;-60
2022/01/04 08:27:28;;;;;;;8.98;1.73;;;;;;;26.09;35.50;94800.13;5021644;28;20319;-60
2022/01/04 08:29:53;;;;;;;5.03;1.80;;;;;;;26.08;35.47;94807.19;5022280;28;20032;-60
2022/01/04 08:32:19;;;;;;;5.55;1.85;;;;;;;26.09;35.44;94803.56;5023369;28;20153;-61
2022/01/04 08:34:44;;;;;;;4.93;1.92;;;;;;;26.12;35.62;94796.41;5021891;28;20025;-61
2022/01/04 08:37:10;;;;;;;10.98;1.80;;;;;;;26.17;35.62;94794.22;5022309;28;20122;-60
2022/01/04 08:39:35;;;;;;;4.78;1.77;;;;;;;26.24;35.47;94790.13;5007512;28;20032;-60
2022/01/04 08:42:02;;;;;;;5.43;1.98;;;;;;;26.34;35.16;94777.88;5027474;28;20554;-60
2022/01/04 08:44:28;;;;;;;3.63;1.98;;;;;;;26.46;35.12;94786.47;5019762;28;20140;-61
2022/01/04 08:46:54;;;;;;;7.28;2.10;;;;;;;26.60;34.79;94785.25;5026328;28;20658;-60
2022/01/04 08:49:19;;;;;;;6.03;2.10;;;;;;;26.72;34.59;94771.97;5022703;28;20035;-62
2022/01/04 08:51:44;;;;;;;3.42;1.40;;;;;;;26.84;34.21;94776.16;5022569;28;20032;-60
2022/01/04 08:54:10;;;;;;;3.13;1.70;;;;;;;26.94;34.03;94764.81;5021895;28;20036;-60
2022/01/04 08:56:36;;;;;;;3.65;1.35;;;;;;;27.04;33.31;94770.91;5020300;28;20052;-61
2022/01/04 08:59:03;;;;;;;4.22;1.40;;;;;;;27.12;32.60;94762.34;5008643;28;20030;-59
2022/01/04 09:01:29;;;;;;;2.67;1.20;;;;;;;27.18;33.07;94771.47;5022582;28;20033;-60
2022/01/04 09:03:54;;;;;;;4.82;1.67;;;;;;;27.24;33.05;94769.09;5021534;28;20039;-61
2022/01/04 09:06:22;;;;;;;5.10;1.70;;;;;;;27.28;32.69;94767.03;5023599;28;20666;-59
2022/01/04 09:08:47;;;;;;;2.80;1.20;;;;;;;27.33;32.37;94770.06;5028754;28;20518;-60
2022/01/04 09:11:15;;;;;;;4.60;1.35;;;;;;;27.36;32.29;94779.47;5021980;28;20026;-62
2022/01/04 09:13:43;;;;;;;2.90;0.90;;;;;;;27.39;32.29;94768.69;5021024;28;20024;-59
2022/01/04 09:18:43;;;;;;;4.40;1.52;;;;;;;27.44;32.66;94757.72;5020685;28;20281;-60
2022/01/04 09:21:10;;;;;;;4.57;1.70;;;;;;;27.46;32.50;94758.44;5021805;28;20553;-61
2022/01/04 09:23:35;;;;;;;5.88;1.38;;;;;;;27.47;32.57;94755.66;5024277;28;20104;-61
2022/01/04 09:26:01;;;;;;;8.23;1.48;;;;;;;27.49;31.99;94758.13;5018841;28;20040;-60
2022/01/04 09:28:27;;;;;;;2.17;1.10;;;;;;;27.50;31.82;94734.31;5021028;28;20034;-60
2022/01/04 09:30:52;;;;;;;2.15;1.00;;;;;;;27.53;31.42;94733.19;5022198;28;20037;-61
2022/01/04 09:33:19;;;;;;;2.42;0.82;;;;;;;27.56;31.12;94732.09;5005149;28;20021;-59
2022/01/04 09:35:44;;;;;;;2.75;1.10;;;;;;;27.59;31.00;94727.38;5021871;28;20129;-60
2022/01/04 09:38:10;;;;;;;5.05;1.27;;;;;;;27.62;31.61;94736.81;5021525;28;20653;-61
2022/01/04 09:40:35;;;;;;;5.78;1.13;;;;;;;27.64;31.60;94735.72;5021472;28;20024;-57
2022/01/04 09:43:03;;;;;;;8.55;1.25;;;;;;;27.67;31.64;94733.75;5020385;28;20041;-58
2022/01/04 09:45:28;;;;;;;8.70;1.33;;;;;;;27.68;31.52;94740.69;5018498;28;21705;-58
2022/01/04 09:47:54;;;;;;;3.50;1.27;;;;;;;27.67;31.52;94749.53;5018036;28;20040;-59
2022/01/04 09:50:19;;;;;;;9.20;1.80;;;;;;;27.68;31.44;94735.44;5019830;28;20029;-59
2022/01/04 09:52:47;;;;;;;5.07;1.20;;;;;;;27.67;31.41;94754.78;5019316;28;20033;-58
2022/01/04 09:55:13;;;;;;;4.15;1.30;;;;;;;27.62;31.45;94737.63;5021183;28;20025;-59
2022/01/04 09:57:39;;;;;;;5.90;1.23;;;;;;;27.58;31.27;94730.16;5019442;28;20491;-60
2022/01/04 10:00:06;;;;;;;4.88;1.23;;;;;;;27.52;31.29;94726.28;5018384;28;20029;-60
2022/01/04 10:02:31;;;;;;;6.30;1.20;;;;;;;27.42;31.12;94720.22;5017218;28;20978;-58
2022/01/04 10:05:15;;;;;;;3.10;0.98;;;;;;;27.38;31.21;94725.75;5016831;28;20029;-59
2022/01/04 10:07:41;;;;;;;5.38;1.27;;;;;;;27.33;31.26;94714.00;5019963;28;20028;-59
2022/01/04 10:10:09;;;;;;;9.65;1.35;;;;;;;27.26;31.54;94705.84;5015693;28;20044;-59
2022/01/04 10:12:57;;;;;;;14.32;1.80;;;;;;;27.19;31.82;94704.78;5014809;28;20112;-59
2022/01/04 10:15:45;;;;;;;9.57;1.95;;;;;;;27.11;32.13;94697.56;5018157;28;20061;-59
2022/01/04 10:18:13;;;;;;;9.23;1.60;;;;;;;27.07;32.22;94690.94;5022393;28;20051;-60
2022/01/04 10:21:12;;;;;;;6.13;1.90;;;;;;;27.00;32.15;94681.00;5023372;28;20491;-60
2022/01/04 10:24:04;;;;;;;14.98;2.72;;;;;;;26.95;32.52;94698.16;5006374;28;20859;-61
2022/01/04 10:26:35;;;;;;;;;;;;;;;26.90;32.60;94697.72;5016725;28;20725;-60
2022/01/04 10:29:00;;;;;;;18.63;3.28;;;;;;;26.86;32.80;94684.84;5021686;28;19917;-59
2022/01/04 10:31:26;;;;;;;14.07;2.95;;;;;;;26.84;32.97;94675.44;5017479;28;20028;-61
2022/01/04 10:33:53;;;;;;;22.50;3.30;;;;;;;26.80;33.09;94668.81;5034760;28;20063;-60
2022/01/04 10:36:21;;;;;;;9.68;3.17;;;;;;;26.77;33.19;94659.41;5024053;28;20147;-61
2022/01/04 10:38:47;;;;;;;12.77;2.50;;;;;;;26.74;33.30;94676.28;5027307;28;20060;-60
2022/01/04 10:41:15;;;;;;;14.30;3.20;;;;;;;26.73;33.32;94676.41;5024158;28;20037;-61
2022/01/04 10:43:48;;;;;;;12.68;2.80;;;;;;;26.71;33.44;94675.75;5038381;28;20045;-62
2022/01/04 10:46:21;;;;;;;9.70;2.90;;;;;;;26.69;33.50;94693.47;5022084;28;20737;-61
2022/01/04 10:48:48;;;;;;;8.02;2.53;;;;;;;26.68;33.49;94697.03;4996845;28;20036;-61
2022/01/04 10:51:20;;;;;;;38.15;3.10;;;;;;;26.66;33.65;94693.72;5024600;28;20032;-60
2022/01/04 10:53:54;;;;;;;8.23;2.30;;;;;;;26.65;33.77;94681.56;5009878;28;20079;-61
2022/01/04 10:56:31;;;;;;;16.60;2.42;;;;;;;26.63;33.73;94662.47;5022527;28;20116;-60
2022/01/04 10:58:57;;;;;;;9.43;2.28;;;;;;;26.61;33.85;94639.81;5019745;28;20094;-61
2022/01/04 11:01:25;;;;;;;8.80;2.10;;;;;;;26.60;33.84;94632.91;5019799;28;20040;-62
2022/01/04 11:03:56;;;;;;;8.75;2.00;;;;;;;26.59;33.95;94654.84;5022668;28;20033;-60
2022/01/04 11:06:36;;;;;;;5.28;1.60;;;;;;;26.58;34.07;94655.84;5022100;28;20029;-61
2022/01/04 11:09:01;;;;;;;5.43;1.88;;;;;;;26.58;34.09;94655.84;5026381;28;20532;-59
2022/01/04 11:11:27;;;;;;;7.88;2.30;;;;;;;26.57;33.98;94664.69;5026810;28;20044;-62
2022/01/04 11:13:52;;;;;;;6.72;2.20;;;;;;;26.56;34.40;94676.16;5026020;28;20037;-59
2022/01/04 11:16:23;;;;;;;5.93;2.15;;;;;;;26.56;34.25;94675.31;5024106;28;20501;-62
2022/01/04 11:18:50;;;;;;;4.65;1.80;;;;;;;26.56;34.72;94683.22;5026424;28;20465;-64
2022/01/04 11:21:20;;;;;;;7.68;1.95;;;;;;;26.56;34.73;94689.31;5005836;28;20060;-59
2022/01/04 11:23:45;;;;;;;8.10;2.08;;;;;;;26.55;35.00;94677.13;5011576;28;20041;-60
2022/01/04 11:26:11;;;;;;;13.05;2.40;;;;;;;26.55;35.12;94666.59;5004931;28;20033;-59
2022/01/04 11:28:44;;;;;;;7.20;1.67;;;;;;;26.59;35.24;94672.44;4993746;28;20354;-60
2022/01/04 11:31:44;;;;;;;4.45;2.08;;;;;;;26.66;35.21;94657.75;5010400;28;20030;-60
2022/01/04 11:34:31;;;;;;;6.68;1.85;;;;;;;26.76;35.16;94663.00;4991525;28;20044;-58
2022/01/04 11:36:57;;;;;;;6.45;1.90;;;;;;;26.86;34.95;94661.19;4986821;28;20500;-60
2022/01/04 11:39:36;;;;;;;6.75;1.92;;;;;;;27.01;34.63;94660.81;4999615;28;20040;-59